Tusimice, Czech Republic

6:02 AM CEST on May 07, 2015 (GMT +0200)
Kadan, Czech republic | | Change Station
CLOSE
Current Station
Personal Weather Station
Location: ECOdate, Kadan, USTECKY KRAJ
Elevation: 1033 ft
Nearby Weather Stations

Elev 1033 ft 50.38 °N, 13.26 °E | Updated 4 seconds ago

Fog
Fog
49.6 °F
Feels Like 50 °F
N
2.0
Wind Variable Wind from ESE
Gusts 5.4 mph

Today
High -- | Low -- °F
--% Chance of Precip.
Yesterday
High -- | Low -- °F
Precip. -- in
5:32 AM 8:35 PM
Waning Gibbous, 90% visible
Pressure 30.09 in
Visibility -9999.0 miles
Clouds
Windchill 50 °F
Dew Point 44 °F
Humidity 82%
Rainfall 0.00 in
Snow Depth Not available.
UV Not available.
Pollen Not available.
Air Quality Not available.
Flu Activity Not available.
SPECI LKLN 070348Z AUTO 26001KT 0750 FG NSC 06/06 Q1019

More Conditions Fewer Conditions

Pressure 30.09 in
Visibility -9999.0 miles
Clouds
Windchill 50 °F
Dew Point 44 °F
Humidity 82%
Rainfall 0.00 in
Snow Depth Not available.
UV Not available.
Pollen Not available.
Air Quality Not available.
Flu Activity Not available.
SPECI LKLN 070348Z AUTO 26001KT 0750 FG NSC 06/06 Q1019

More Conditions Fewer Conditions

10-Day Weather Forecast

Almanac

Astronomy

May. 07, 2015 Rise Set
Actual Time
Civil Twilight
Nautical Twilight
Astronomical Twilight
Moon
Length of Visible Light
Length of Day
Tomorrow will be .
, % of the Moon is Illuminated

Today's Extremes

Country Highs Country Lows

Community

WunderPhotos

Upload Photos

1,819,120 photos uploaded!

WunderBlogs® & News

Nearby

Air Quality

  Air Quality AQ Index Pollutant
Not available.

Snow Depth

Station Depth Elevation

Earthquake Activity

City Distance Mag. Time & Date
Minimum magnitude displayed is 2.5.

Coastal Water Temperatures

Place Temperature

Stations

Nearby Weather Stations

Station Location Temp. Windchill Dew Point Humidity Wind Precip. Elev Updated Type